sensor_id;sensor_type;location;lat;lon;timestamp;temperature;humidity
4411;DHT22;2218;51.408;7.208;2023-05-14T00:02:14;21.10;46.90
4411;DHT22;2218;51.408;7.208;2023-05-14T00:04:41;21.10;46.90
4411;DHT22;2218;51.408;7.208;2023-05-14T00:07:08;21.10;46.80
4411;DHT22;2218;51.408;7.208;2023-05-14T00:09:35;21.10;46.90
4411;DHT22;2218;51.408;7.208;2023-05-14T00:12:02;21.10;46.90
4411;DHT22;2218;51.408;7.208;2023-05-14T00:14:29;21.00;46.80
4411;DHT22;2218;51.408;7.208;2023-05-14T00:16:57;21.10;46.80
4411;DHT22;2218;51.408;7.208;2023-05-14T00:19:25;21.00;46.80
4411;DHT22;2218;51.408;7.208;2023-05-14T00:21:52;21.10;46.80
4411;DHT22;2218;51.408;7.208;2023-05-14T00:24:19;21.00;46.80
4411;DHT22;2218;51.408;7.208;2023-05-14T00:26:45;21.10;46.90
4411;DHT22;2218;51.408;7.208;2023-05-14T00:29:13;21.00;46.70
4411;DHT22;2218;51.408;7.208;2023-05-14T00:31:39;21.00;46.80
4411;DHT22;2218;51.408;7.208;2023-05-14T00:34:08;21.00;46.80
4411;DHT22;2218;51.408;7.208;2023-05-14T00:36:35;21.00;46.80
4411;DHT22;2218;51.408;7.208;2023-05-14T00:39:02;21.00;46.70
4411;DHT22;2218;51.408;7.208;2023-05-14T00:41:29;21.00;46.70
4411;DHT22;2218;51.408;7.208;2023-05-14T00:43:56;21.00;46.80
4411;DHT22;2218;51.408;7.208;2023-05-14T00:46:23;21.00;46.80
4411;DHT22;2218;51.408;7.208;2023-05-14T00:48:50;21.00;46.70
4411;DHT22;2218;51.408;7.208;2023-05-14T00:51:19;21.00;46.80
4411;DHT22;2218;51.408;7.208;2023-05-14T00:53:46;21.00;46.80
4411;DHT22;2218;51.408;7.208;2023-05-14T00:56:15;21.00;46.80
4411;DHT22;2218;51.408;7.208;2023-05-14T00:58:42;21.00;46.80
4411;DHT22;2218;51.408;7.208;2023-05-14T01:01:09;21.00;47.30
4411;DHT22;2218;51.408;7.208;2023-05-14T01:03:39;21.00;46.70
4411;DHT22;2218;51.408;7.208;2023-05-14T01:06:13;21.00;46.80
4411;DHT22;2218;51.408;7.208;2023-05-14T01:08:52;21.00;46.70
4411;DHT22;2218;51.408;7.208;2023-05-14T01:11:28;21.00;46.70
4411;DHT22;2218;51.408;7.208;2023-05-14T01:14:07;21.00;46.70
4411;DHT22;2218;51.408;7.208;2023-05-14T01:16:42;21.00;46.70
4411;DHT22;2218;51.408;7.208;2023-05-14T01:19:32;21.00;46.70
4411;DHT22;2218;51.408;7.208;2023-05-14T01:22:04;20.90;46.60
4411;DHT22;2218;51.408;7.208;2023-05-14T01:24:31;21.00;46.70
4411;DHT22;2218;51.408;7.208;2023-05-14T01:27:05;20.90;46.60
4411;DHT22;2218;51.408;7.208;2023-05-14T01:29:38;21.00;46.70
4411;DHT22;2218;51.408;7.208;2023-05-14T01:32:12;20.90;46.50
4411;DHT22;2218;51.408;7.208;2023-05-14T01:34:40;21.00;46.70
4411;DHT22;2218;51.408;7.208;2023-05-14T01:37:10;21.00;46.70
4411;DHT22;2218;51.408;7.208;2023-05-14T01:39:40;20.90;46.60
4411;DHT22;2218;51.408;7.208;2023-05-14T01:42:08;20.90;46.50
4411;DHT22;2218;51.408;7.208;2023-05-14T01:44:36;20.90;46.50
4411;DHT22;2218;51.408;7.208;2023-05-14T01:47:03;20.90;46.50
4411;DHT22;2218;51.408;7.208;2023-05-14T01:49:31;20.90;46.50
4411;DHT22;2218;51.408;7.208;2023-05-14T01:51:58;20.90;46.50
4411;DHT22;2218;51.408;7.208;2023-05-14T01:54:26;20.90;46.50
4411;DHT22;2218;51.408;7.208;2023-05-14T01:56:53;20.90;46.50
4411;DHT22;2218;51.408;7.208;2023-05-14T01:59:20;20.90;46.50
4411;DHT22;2218;51.408;7.208;2023-05-14T02:01:47;20.90;46.50
4411;DHT22;2218;51.408;7.208;2023-05-14T02:04:15;20.90;46.50
4411;DHT22;2218;51.408;7.208;2023-05-14T02:06:42;20.90;46.50
4411;DHT22;2218;51.408;7.208;2023-05-14T02:09:08;20.90;46.50
4411;DHT22;2218;51.408;7.208;2023-05-14T02:11:37;20.90;46.40
4411;DHT22;2218;51.408;7.208;2023-05-14T02:14:04;20.90;46.40
4411;DHT22;2218;51.408;7.208;2023-05-14T02:16:31;20.90;46.40
4411;DHT22;2218;51.408;7.208;2023-05-14T02:18:58;20.90;46.40
4411;DHT22;2218;51.408;7.208;2023-05-14T02:21:25;20.90;46.40
4411;DHT22;2218;51.408;7.208;2023-05-14T02:23:51;20.90;46.40
4411;DHT22;2218;51.408;7.208;2023-05-14T02:26:19;20.90;46.40
4411;DHT22;2218;51.408;7.208;2023-05-14T02:28:48;20.90;46.40
4411;DHT22;2218;51.408;7.208;2023-05-14T02:31:14;20.80;46.30
4411;DHT22;2218;51.408;7.208;2023-05-14T02:33:43;20.80;46.40
4411;DHT22;2218;51.408;7.208;2023-05-14T02:36:10;20.80;46.40
4411;DHT22;2218;51.408;7.208;2023-05-14T02:38:38;20.90;46.40
4411;DHT22;2218;51.408;7.208;2023-05-14T02:41:05;20.80;46.30
4411;DHT22;2218;51.408;7.208;2023-05-14T02:43:32;20.90;46.40
4411;DHT22;2218;51.408;7.208;2023-05-14T02:46:00;20.90;46.40
4411;DHT22;2218;51.408;7.208;2023-05-14T02:48:27;20.80;46.30
4411;DHT22;2218;51.408;7.208;2023-05-14T02:50:54;20.80;46.20
4411;DHT22;2218;51.408;7.208;2023-05-14T02:53:21;20.80;46.80
4411;DHT22;2218;51.408;7.208;2023-05-14T02:55:47;20.80;46.30
4411;DHT22;2218;51.408;7.208;2023-05-14T02:58:15;20.80;46.30
4411;DHT22;2218;51.408;7.208;2023-05-14T03:00:42;20.80;46.20
4411;DHT22;2218;51.408;7.208;2023-05-14T03:03:11;20.80;46.20
4411;DHT22;2218;51.408;7.208;2023-05-14T03:05:37;20.80;46.20
4411;DHT22;2218;51.408;7.208;2023-05-14T03:08:04;20.80;46.20
4411;DHT22;2218;51.408;7.208;2023-05-14T03:10:32;20.80;46.20
4411;DHT22;2218;51.408;7.208;2023-05-14T03:12:58;20.80;46.20
4411;DHT22;2218;51.408;7.208;2023-05-14T03:15:25;20.80;46.20
4411;DHT22;2218;51.408;7.208;2023-05-14T03:17:52;20.80;46.20
4411;DHT22;2218;51.408;7.208;2023-05-14T03:20:22;20.80;46.10
4411;DHT22;2218;51.408;7.208;2023-05-14T03:22:51;20.80;46.20
4411;DHT22;2218;51.408;7.208;2023-05-14T03:25:19;20.80;46.10
4411;DHT22;2218;51.408;7.208;2023-05-14T03:27:46;20.80;46.10
4411;DHT22;2218;51.408;7.208;2023-05-14T03:30:13;20.80;46.10
4411;DHT22;2218;51.408;7.208;2023-05-14T03:32:40;20.80;46.10
4411;DHT22;2218;51.408;7.208;2023-05-14T03:35:08;20.80;46.10
4411;DHT22;2218;51.408;7.208;2023-05-14T03:37:36;20.80;46.10
4411;DHT22;2218;51.408;7.208;2023-05-14T03:40:05;20.80;46.10
4411;DHT22;2218;51.408;7.208;2023-05-14T03:42:35;20.80;46.00
4411;DHT22;2218;51.408;7.208;2023-05-14T03:45:02;20.80;46.10
4411;DHT22;2218;51.408;7.208;2023-05-14T03:47:30;20.80;46.10
4411;DHT22;2218;51.408;7.208;2023-05-14T03:49:58;20.80;46.10
4411;DHT22;2218;51.408;7.208;2023-05-14T03:52:25;20.70;46.00
4411;DHT22;2218;51.408;7.208;2023-05-14T03:54:53;20.80;46.00
4411;DHT22;2218;51.408;7.208;2023-05-14T03:57:20;20.70;45.90
4411;DHT22;2218;51.408;7.208;2023-05-14T03:59:47;20.80;46.00
4411;DHT22;2218;51.408;7.208;2023-05-14T04:02:14;20.80;46.00
4411;DHT22;2218;51.408;7.208;2023-05-14T04:04:41;20.70;45.90
4411;DHT22;2218;51.408;7.208;2023-05-14T04:07:08;20.80;46.00
4411;DHT22;2218;51.408;7.208;2023-05-14T04:09:35;20.80;45.90
4411;DHT22;2218;51.408;7.208;2023-05-14T04:12:04;20.70;46.40
4411;DHT22;2218;51.408;7.208;2023-05-14T04:14:32;20.70;45.90
4411;DHT22;2218;51.408;7.208;2023-05-14T04:16:59;20.80;46.00
4411;DHT22;2218;51.408;7.208;2023-05-14T04:19:26;20.70;45.90
4411;DHT22;2218;51.408;7.208;2023-05-14T04:21:53;20.70;45.80
4411;DHT22;2218;51.408;7.208;2023-05-14T04:24:20;20.70;45.80
4411;DHT22;2218;51.408;7.208;2023-05-14T04:26:47;20.80;45.90
4411;DHT22;2218;51.408;7.208;2023-05-14T04:29:15;20.80;45.80
4411;DHT22;2218;51.408;7.208;2023-05-14T04:31:43;20.80;45.80
4411;DHT22;2218;51.408;7.208;2023-05-14T04:34:10;20.80;45.90
4411;DHT22;2218;51.408;7.208;2023-05-14T04:36:37;20.80;45.80
4411;DHT22;2218;51.408;7.208;2023-05-14T04:39:04;20.70;45.80
4411;DHT22;2218;51.408;7.208;2023-05-14T04:41:31;20.80;45.80
4411;DHT22;2218;51.408;7.208;2023-05-14T04:43:59;20.70;45.70
4411;DHT22;2218;51.408;7.208;2023-05-14T04:46:28;20.70;45.70
4411;DHT22;2218;51.408;7.208;2023-05-14T04:48:55;20.80;45.70
4411;DHT22;2218;51.408;7.208;2023-05-14T04:51:22;20.80;45.70
4411;DHT22;2218;51.408;7.208;2023-05-14T04:53:50;20.80;45.70
4411;DHT22;2218;51.408;7.208;2023-05-14T04:56:17;20.80;45.70
4411;DHT22;2218;51.408;7.208;2023-05-14T04:58:45;20.80;45.70
4411;DHT22;2218;51.408;7.208;2023-05-14T05:01:12;20.80;45.70
4411;DHT22;2218;51.408;7.208;2023-05-14T05:03:41;20.80;45.70
4411;DHT22;2218;51.408;7.208;2023-05-14T05:06:08;20.80;45.70
4411;DHT22;2218;51.408;7.208;2023-05-14T05:08:35;20.80;45.70
4411;DHT22;2218;51.408;7.208;2023-05-14T05:11:03;20.80;45.70
4411;DHT22;2218;51.408;7.208;2023-05-14T05:13:30;20.80;45.70
4411;DHT22;2218;51.408;7.208;2023-05-14T05:15:57;20.80;45.60
4411;DHT22;2218;51.408;7.208;2023-05-14T05:18:24;20.90;45.60
4411;DHT22;2218;51.408;7.208;2023-05-14T05:20:53;20.90;45.50
4411;DHT22;2218;51.408;7.208;2023-05-14T05:23:20;21.00;45.50
4411;DHT22;2218;51.408;7.208;2023-05-14T05:25:48;21.00;45.40
4411;DHT22;2218;51.408;7.208;2023-05-14T05:28:15;21.10;45.40
4411;DHT22;2218;51.408;7.208;2023-05-14T05:30:43;21.10;45.40
4411;DHT22;2218;51.408;7.208;2023-05-14T05:33:10;21.10;45.50
4411;DHT22;2218;51.408;7.208;2023-05-14T05:35:38;21.10;45.60
4411;DHT22;2218;51.408;7.208;2023-05-14T05:38:06;21.10;45.60
4411;DHT22;2218;51.408;7.208;2023-05-14T05:40:33;21.00;45.50
4411;DHT22;2218;51.408;7.208;2023-05-14T05:43:00;21.00;45.50
4411;DHT22;2218;51.408;7.208;2023-05-14T05:45:27;21.10;45.50
4411;DHT22;2218;51.408;7.208;2023-05-14T05:47:54;21.10;45.50
4411;DHT22;2218;51.408;7.208;2023-05-14T05:50:21;21.10;45.50
4411;DHT22;2218;51.408;7.208;2023-05-14T05:52:47;21.10;45.40
4411;DHT22;2218;51.408;7.208;2023-05-14T05:55:16;21.10;45.30
4411;DHT22;2218;51.408;7.208;2023-05-14T05:57:43;21.20;45.10
4411;DHT22;2218;51.408;7.208;2023-05-14T06:00:11;21.20;45.10
4411;DHT22;2218;51.408;7.208;2023-05-14T06:02:40;21.30;45.20
4411;DHT22;2218;51.408;7.208;2023-05-14T06:05:08;21.40;45.10
4411;DHT22;2218;51.408;7.208;2023-05-14T06:07:36;21.40;45.20
4411;DHT22;2218;51.408;7.208;2023-05-14T06:10:03;21.40;45.10
4411;DHT22;2218;51.408;7.208;2023-05-14T06:12:33;21.50;45.10
4411;DHT22;2218;51.408;7.208;2023-05-14T06:15:00;21.50;45.10
4411;DHT22;2218;51.408;7.208;2023-05-14T06:17:27;21.60;45.20
4411;DHT22;2218;51.408;7.208;2023-05-14T06:19:54;21.60;45.10
4411;DHT22;2218;51.408;7.208;2023-05-14T06:22:21;21.70;45.10
4411;DHT22;2218;51.408;7.208;2023-05-14T06:24:48;21.70;45.10
4411;DHT22;2218;51.408;7.208;2023-05-14T06:27:15;21.70;45.10
4411;DHT22;2218;51.408;7.208;2023-05-14T06:29:43;21.70;45.10
4411;DHT22;2218;51.408;7.208;2023-05-14T06:32:10;21.80;45.10
4411;DHT22;2218;51.408;7.208;2023-05-14T06:34:39;21.80;45.10
4411;DHT22;2218;51.408;7.208;2023-05-14T06:37:07;21.80;45.00
4411;DHT22;2218;51.408;7.208;2023-05-14T06:39:34;21.80;45.10
4411;DHT22;2218;51.408;7.208;2023-05-14T06:42:01;21.80;45.10
4411;DHT22;2218;51.408;7.208;2023-05-14T06:44:30;21.80;45.00
4411;DHT22;2218;51.408;7.208;2023-05-14T06:46:58;21.90;45.10
4411;DHT22;2218;51.408;7.208;2023-05-14T06:49:25;21.90;44.90
4411;DHT22;2218;51.408;7.208;2023-05-14T06:51:52;21.90;45.00
4411;DHT22;2218;51.408;7.208;2023-05-14T06:54:19;21.90;44.90
4411;DHT22;2218;51.408;7.208;2023-05-14T06:56:46;21.90;44.90
4411;DHT22;2218;51.408;7.208;2023-05-14T06:59:13;21.90;45.50
4411;DHT22;2218;51.408;7.208;2023-05-14T07:01:40;21.90;44.90
4411;DHT22;2218;51.408;7.208;2023-05-14T07:04:08;21.90;45.00
4411;DHT22;2218;51.408;7.208;2023-05-14T07:06:35;21.90;45.00
4411;DHT22;2218;51.408;7.208;2023-05-14T07:09:02;21.90;45.00
4411;DHT22;2218;51.408;7.208;2023-05-14T07:11:30;21.90;44.80
4411;DHT22;2218;51.408;7.208;2023-05-14T07:13:58;21.90;44.90
4411;DHT22;2218;51.408;7.208;2023-05-14T07:16:25;21.90;44.80
4411;DHT22;2218;51.408;7.208;2023-05-14T07:18:52;21.90;44.90
4411;DHT22;2218;51.408;7.208;2023-05-14T07:21:20;21.90;44.90
4411;DHT22;2218;51.408;7.208;2023-05-14T07:23:47;21.90;44.90
4411;DHT22;2218;51.408;7.208;2023-05-14T07:26:14;21.90;44.90
4411;DHT22;2218;51.408;7.208;2023-05-14T07:28:41;21.90;44.90
4411;DHT22;2218;51.408;7.208;2023-05-14T07:31:08;21.90;44.90
4411;DHT22;2218;51.408;7.208;2023-05-14T07:33:35;21.90;44.80
4411;DHT22;2218;51.408;7.208;2023-05-14T07:36:03;21.90;44.90
4411;DHT22;2218;51.408;7.208;2023-05-14T07:38:31;21.90;44.90
4411;DHT22;2218;51.408;7.208;2023-05-14T07:40:58;21.90;44.90
4411;DHT22;2218;51.408;7.208;2023-05-14T07:43:25;22.00;45.10
4411;DHT22;2218;51.408;7.208;2023-05-14T07:45:52;21.90;45.00
4411;DHT22;2218;51.408;7.208;2023-05-14T07:48:20;21.90;45.00
4411;DHT22;2218;51.408;7.208;2023-05-14T07:50:47;21.90;45.00
4411;DHT22;2218;51.408;7.208;2023-05-14T07:53:14;21.90;45.10
4411;DHT22;2218;51.408;7.208;2023-05-14T07:55:43;21.90;45.10
4411;DHT22;2218;51.408;7.208;2023-05-14T07:58:12;21.90;45.10
4411;DHT22;2218;51.408;7.208;2023-05-14T08:00:39;21.90;45.10
4411;DHT22;2218;51.408;7.208;2023-05-14T08:03:06;21.90;45.10
4411;DHT22;2218;51.408;7.208;2023-05-14T08:05:33;21.90;45.20
4411;DHT22;2218;51.408;7.208;2023-05-14T08:08:00;21.90;45.20
4411;DHT22;2218;51.408;7.208;2023-05-14T08:10:27;21.90;45.20
4411;DHT22;2218;51.408;7.208;2023-05-14T08:12:55;21.90;45.30
4411;DHT22;2218;51.408;7.208;2023-05-14T08:15:22;21.90;45.20
4411;DHT22;2218;51.408;7.208;2023-05-14T08:17:49;21.90;45.30
4411;DHT22;2218;51.408;7.208;2023-05-14T08:20:16;21.90;45.30
4411;DHT22;2218;51.408;7.208;2023-05-14T08:22:43;21.90;45.40
4411;DHT22;2218;51.408;7.208;2023-05-14T08:25:10;21.90;45.30
4411;DHT22;2218;51.408;7.208;2023-05-14T08:27:37;21.90;45.30
4411;DHT22;2218;51.408;7.208;2023-05-14T08:30:07;21.90;45.40
4411;DHT22;2218;51.408;7.208;2023-05-14T08:32:35;21.90;45.40
4411;DHT22;2218;51.408;7.208;2023-05-14T08:35:03;21.90;45.50
4411;DHT22;2218;51.408;7.208;2023-05-14T08:37:30;21.90;45.50
4411;DHT22;2218;51.408;7.208;2023-05-14T08:39:57;21.90;45.40
4411;DHT22;2218;51.408;7.208;2023-05-14T08:42:24;21.90;45.40
4411;DHT22;2218;51.408;7.208;2023-05-14T08:44:55;21.90;45.40
4411;DHT22;2218;51.408;7.208;2023-05-14T08:47:28;21.90;45.50
4411;DHT22;2218;51.408;7.208;2023-05-14T08:50:01;21.90;45.50
4411;DHT22;2218;51.408;7.208;2023-05-14T08:52:30;21.90;45.40
4411;DHT22;2218;51.408;7.208;2023-05-14T08:54:59;21.90;45.40
4411;DHT22;2218;51.408;7.208;2023-05-14T08:57:29;21.90;45.40
4411;DHT22;2218;51.408;7.208;2023-05-14T08:59:58;21.90;45.40
4411;DHT22;2218;51.408;7.208;2023-05-14T09:02:29;21.90;45.40
4411;DHT22;2218;51.408;7.208;2023-05-14T09:04:58;21.90;45.30
4411;DHT22;2218;51.408;7.208;2023-05-14T09:07:26;21.90;45.30
4411;DHT22;2218;51.408;7.208;2023-05-14T09:09:54;21.90;45.30
4411;DHT22;2218;51.408;7.208;2023-05-14T09:12:21;21.90;45.30
4411;DHT22;2218;51.408;7.208;2023-05-14T09:14:49;21.90;45.30
4411;DHT22;2218;51.408;7.208;2023-05-14T09:17:17;21.90;45.30
4411;DHT22;2218;51.408;7.208;2023-05-14T09:19:46;21.90;45.30
4411;DHT22;2218;51.408;7.208;2023-05-14T09:22:17;21.90;45.30
4411;DHT22;2218;51.408;7.208;2023-05-14T09:24:45;21.90;45.80
4411;DHT22;2218;51.408;7.208;2023-05-14T09:27:29;21.90;45.30
4411;DHT22;2218;51.408;7.208;2023-05-14T09:30:07;21.90;45.30
4411;DHT22;2218;51.408;7.208;2023-05-14T09:32:37;21.90;45.30
4411;DHT22;2218;51.408;7.208;2023-05-14T09:35:14;21.90;45.30
4411;DHT22;2218;51.408;7.208;2023-05-14T09:37:43;21.90;45.30
4411;DHT22;2218;51.408;7.208;2023-05-14T09:40:11;21.90;45.30
4411;DHT22;2218;51.408;7.208;2023-05-14T09:42:40;21.90;45.40
4411;DHT22;2218;51.408;7.208;2023-05-14T09:45:07;21.90;45.90
4411;DHT22;2218;51.408;7.208;2023-05-14T09:47:35;21.90;45.30
4411;DHT22;2218;51.408;7.208;2023-05-14T09:50:03;21.90;45.20
4411;DHT22;2218;51.408;7.208;2023-05-14T09:52:32;21.90;45.30
4411;DHT22;2218;51.408;7.208;2023-05-14T09:54:59;21.90;45.40
4411;DHT22;2218;51.408;7.208;2023-05-14T09:57:27;21.90;45.30
4411;DHT22;2218;51.408;7.208;2023-05-14T09:59:53;21.80;45.30
4411;DHT22;2218;51.408;7.208;2023-05-14T10:02:22;21.80;45.20
4411;DHT22;2218;51.408;7.208;2023-05-14T10:04:52;21.90;45.40
4411;DHT22;2218;51.408;7.208;2023-05-14T10:07:26;21.90;45.40
4411;DHT22;2218;51.408;7.208;2023-05-14T10:10:01;21.80;45.10
4411;DHT22;2218;51.408;7.208;2023-05-14T10:12:33;21.80;45.10
4411;DHT22;2218;51.408;7.208;2023-05-14T10:15:11;21.80;44.80
4411;DHT22;2218;51.408;7.208;2023-05-14T10:17:48;21.80;45.20
4411;DHT22;2218;51.408;7.208;2023-05-14T10:20:19;21.80;45.40
4411;DHT22;2218;51.408;7.208;2023-05-14T10:22:49;21.80;45.40
4411;DHT22;2218;51.408;7.208;2023-05-14T10:25:18;21.80;45.00
4411;DHT22;2218;51.408;7.208;2023-05-14T10:27:45;21.80;44.90
4411;DHT22;2218;51.408;7.208;2023-05-14T10:30:12;21.80;44.90
4411;DHT22;2218;51.408;7.208;2023-05-14T10:32:40;21.80;44.80
4411;DHT22;2218;51.408;7.208;2023-05-14T10:35:15;21.80;44.90
4411;DHT22;2218;51.408;7.208;2023-05-14T10:37:45;21.80;45.10
4411;DHT22;2218;51.408;7.208;2023-05-14T10:40:13;21.80;45.40
4411;DHT22;2218;51.408;7.208;2023-05-14T10:42:41;21.80;45.60
4411;DHT22;2218;51.408;7.208;2023-05-14T10:45:10;21.80;45.10
4411;DHT22;2218;51.408;7.208;2023-05-14T10:47:41;21.80;45.50
4411;DHT22;2218;51.408;7.208;2023-05-14T10:50:11;21.80;45.40
4411;DHT22;2218;51.408;7.208;2023-05-14T10:52:40;21.80;45.20
4411;DHT22;2218;51.408;7.208;2023-05-14T10:55:12;21.80;45.10
4411;DHT22;2218;51.408;7.208;2023-05-14T10:57:43;21.80;45.20
4411;DHT22;2218;51.408;7.208;2023-05-14T11:00:12;21.80;45.10
4411;DHT22;2218;51.408;7.208;2023-05-14T11:02:41;21.80;45.30
4411;DHT22;2218;51.408;7.208;2023-05-14T11:05:10;21.80;45.20
4411;DHT22;2218;51.408;7.208;2023-05-14T11:07:41;21.80;45.30
4411;DHT22;2218;51.408;7.208;2023-05-14T11:10:10;21.80;45.40
4411;DHT22;2218;51.408;7.208;2023-05-14T11:12:39;21.80;45.50
4411;DHT22;2218;51.408;7.208;2023-05-14T11:15:10;21.80;45.40
4411;DHT22;2218;51.408;7.208;2023-05-14T11:17:39;21.80;45.30
4411;DHT22;2218;51.408;7.208;2023-05-14T11:20:07;21.80;45.30
4411;DHT22;2218;51.408;7.208;2023-05-14T11:22:37;21.80;45.60
4411;DHT22;2218;51.408;7.208;2023-05-14T11:25:06;21.80;45.60
4411;DHT22;2218;51.408;7.208;2023-05-14T11:27:35;21.80;45.40
4411;DHT22;2218;51.408;7.208;2023-05-14T11:30:12;21.80;45.60
4411;DHT22;2218;51.408;7.208;2023-05-14T11:32:40;21.80;45.60
4411;DHT22;2218;51.408;7.208;2023-05-14T11:35:07;21.80;45.60
4411;DHT22;2218;51.408;7.208;2023-05-14T11:37:35;21.80;45.50
4411;DHT22;2218;51.408;7.208;2023-05-14T11:40:06;21.80;45.20
4411;DHT22;2218;51.408;7.208;2023-05-14T11:42:35;21.80;45.50
4411;DHT22;2218;51.408;7.208;2023-05-14T11:45:05;21.80;45.20
4411;DHT22;2218;51.408;7.208;2023-05-14T11:47:36;21.80;45.20
4411;DHT22;2218;51.408;7.208;2023-05-14T11:50:03;21.80;45.40
4411;DHT22;2218;51.408;7.208;2023-05-14T11:52:36;21.80;45.30
4411;DHT22;2218;51.408;7.208;2023-05-14T11:55:07;21.80;45.60
4411;DHT22;2218;51.408;7.208;2023-05-14T11:57:36;21.80;45.50
4411;DHT22;2218;51.408;7.208;2023-05-14T12:00:07;21.80;45.20
4411;DHT22;2218;51.408;7.208;2023-05-14T12:02:38;21.80;45.30
4411;DHT22;2218;51.408;7.208;2023-05-14T12:05:06;21.80;45.20
4411;DHT22;2218;51.408;7.208;2023-05-14T12:07:36;21.80;45.30
4411;DHT22;2218;51.408;7.208;2023-05-14T12:10:03;21.80;45.30
4411;DHT22;2218;51.408;7.208;2023-05-14T12:12:34;21.80;45.50
4411;DHT22;2218;51.408;7.208;2023-05-14T12:15:09;21.80;45.50
4411;DHT22;2218;51.408;7.208;2023-05-14T12:17:37;21.80;45.50
4411;DHT22;2218;51.408;7.208;2023-05-14T12:20:07;21.80;45.40
4411;DHT22;2218;51.408;7.208;2023-05-14T12:22:37;21.80;45.20
4411;DHT22;2218;51.408;7.208;2023-05-14T12:25:10;21.80;45.10
4411;DHT22;2218;51.408;7.208;2023-05-14T12:27:39;21.80;45.30
4411;DHT22;2218;51.408;7.208;2023-05-14T12:30:11;21.80;45.40
4411;DHT22;2218;51.408;7.208;2023-05-14T12:32:38;21.80;45.40
4411;DHT22;2218;51.408;7.208;2023-05-14T12:35:06;21.80;45.60
4411;DHT22;2218;51.408;7.208;2023-05-14T12:37:34;21.80;45.50
4411;DHT22;2218;51.408;7.208;2023-05-14T12:40:02;21.80;45.50
4411;DHT22;2218;51.408;7.208;2023-05-14T12:42:33;21.90;45.50
4411;DHT22;2218;51.408;7.208;2023-05-14T12:45:00;21.90;45.50
4411;DHT22;2218;51.408;7.208;2023-05-14T12:47:31;21.90;45.50
4411;DHT22;2218;51.408;7.208;2023-05-14T12:49:58;21.90;45.50
4411;DHT22;2218;51.408;7.208;2023-05-14T12:52:25;21.90;45.40
4411;DHT22;2218;51.408;7.208;2023-05-14T12:54:52;21.90;45.90
4411;DHT22;2218;51.408;7.208;2023-05-14T12:57:19;21.90;45.30
4411;DHT22;2218;51.408;7.208;2023-05-14T12:59:46;21.90;45.30
4411;DHT22;2218;51.408;7.208;2023-05-14T13:02:13;21.90;45.20
4411;DHT22;2218;51.408;7.208;2023-05-14T13:04:42;21.90;45.50
4411;DHT22;2218;51.408;7.208;2023-05-14T13:07:09;21.90;45.20
4411;DHT22;2218;51.408;7.208;2023-05-14T13:09:36;21.90;45.60
4411;DHT22;2218;51.408;7.208;2023-05-14T13:12:03;21.90;45.30
4411;DHT22;2218;51.408;7.208;2023-05-14T13:14:31;21.90;45.20
4411;DHT22;2218;51.408;7.208;2023-05-14T13:16:58;21.90;45.10
4411;DHT22;2218;51.408;7.208;2023-05-14T13:19:25;21.90;45.50
4411;DHT22;2218;51.408;7.208;2023-05-14T13:21:53;21.90;45.60
4411;DHT22;2218;51.408;7.208;2023-05-14T13:24:20;21.90;45.60
4411;DHT22;2218;51.408;7.208;2023-05-14T13:26:49;21.90;45.50
4411;DHT22;2218;51.408;7.208;2023-05-14T13:29:16;21.90;45.70
4411;DHT22;2218;51.408;7.208;2023-05-14T13:31:43;21.90;45.20
4411;DHT22;2218;51.408;7.208;2023-05-14T13:34:10;21.90;45.50
4411;DHT22;2218;51.408;7.208;2023-05-14T13:36:37;21.90;45.50
4411;DHT22;2218;51.408;7.208;2023-05-14T13:39:06;21.90;45.50
4411;DHT22;2218;51.408;7.208;2023-05-14T13:41:33;21.90;45.50
4411;DHT22;2218;51.408;7.208;2023-05-14T13:44:02;21.90;45.20
4411;DHT22;2218;51.408;7.208;2023-05-14T13:46:29;21.90;45.20
4411;DHT22;2218;51.408;7.208;2023-05-14T13:48:56;21.90;45.30
4411;DHT22;2218;51.408;7.208;2023-05-14T13:51:23;21.90;45.30
4411;DHT22;2218;51.408;7.208;2023-05-14T13:53:50;21.90;45.70
4411;DHT22;2218;51.408;7.208;2023-05-14T13:56:19;21.90;45.20
4411;DHT22;2218;51.408;7.208;2023-05-14T13:58:45;21.90;45.40
4411;DHT22;2218;51.408;7.208;2023-05-14T14:01:13;21.90;45.30
4411;DHT22;2218;51.408;7.208;2023-05-14T14:03:40;21.90;45.50
4411;DHT22;2218;51.408;7.208;2023-05-14T14:06:07;21.90;45.40
4411;DHT22;2218;51.408;7.208;2023-05-14T14:08:34;21.90;45.30
4411;DHT22;2218;51.408;7.208;2023-05-14T14:11:01;21.90;45.40
4411;DHT22;2218;51.408;7.208;2023-05-14T14:13:29;21.90;45.20
4411;DHT22;2218;51.408;7.208;2023-05-14T14:15:56;21.90;45.30
4411;DHT22;2218;51.408;7.208;2023-05-14T14:18:23;21.90;45.30
4411;DHT22;2218;51.408;7.208;2023-05-14T14:20:50;21.90;45.20
4411;DHT22;2218;51.408;7.208;2023-05-14T14:23:18;21.90;45.20
4411;DHT22;2218;51.408;7.208;2023-05-14T14:25:45;22.00;45.40
4411;DHT22;2218;51.408;7.208;2023-05-14T14:28:12;21.90;45.10
4411;DHT22;2218;51.408;7.208;2023-05-14T14:30:40;21.90;45.50
4411;DHT22;2218;51.408;7.208;2023-05-14T14:33:08;21.90;45.20
4411;DHT22;2218;51.408;7.208;2023-05-14T14:35:35;21.90;45.50
4411;DHT22;2218;51.408;7.208;2023-05-14T14:38:02;21.90;45.30
4411;DHT22;2218;51.408;7.208;2023-05-14T14:40:31;21.90;45.40
4411;DHT22;2218;51.408;7.208;2023-05-14T14:42:58;21.90;45.30
4411;DHT22;2218;51.408;7.208;2023-05-14T14:45:26;21.90;45.30
4411;DHT22;2218;51.408;7.208;2023-05-14T14:48:27;21.90;45.30
4411;DHT22;2218;51.408;7.208;2023-05-14T14:50:56;21.90;45.30
4411;DHT22;2218;51.408;7.208;2023-05-14T14:53:23;22.00;45.40
4411;DHT22;2218;51.408;7.208;2023-05-14T14:55:50;21.90;45.40
4411;DHT22;2218;51.408;7.208;2023-05-14T14:58:18;21.90;45.30
4411;DHT22;2218;51.408;7.208;2023-05-14T15:00:46;21.90;45.20
4411;DHT22;2218;51.408;7.208;2023-05-14T15:03:14;22.00;45.30
4411;DHT22;2218;51.408;7.208;2023-05-14T15:05:44;21.90;45.20
4411;DHT22;2218;51.408;7.208;2023-05-14T15:08:11;22.00;45.60
4411;DHT22;2218;51.408;7.208;2023-05-14T15:10:38;22.00;45.30
4411;DHT22;2218;51.408;7.208;2023-05-14T15:13:06;22.00;45.30
4411;DHT22;2218;51.408;7.208;2023-05-14T15:15:35;22.00;45.20
4411;DHT22;2218;51.408;7.208;2023-05-14T15:18:03;22.00;45.30
4411;DHT22;2218;51.408;7.208;2023-05-14T15:20:30;22.00;45.70
4411;DHT22;2218;51.408;7.208;2023-05-14T15:22:58;21.90;45.30
4411;DHT22;2218;51.408;7.208;2023-05-14T15:25:25;22.00;45.50
4411;DHT22;2218;51.408;7.208;2023-05-14T15:27:53;22.00;45.40
4411;DHT22;2218;51.408;7.208;2023-05-14T15:30:20;21.90;45.30
4411;DHT22;2218;51.408;7.208;2023-05-14T15:32:47;21.90;45.50
4411;DHT22;2218;51.408;7.208;2023-05-14T15:35:14;22.00;45.60
4411;DHT22;2218;51.408;7.208;2023-05-14T15:37:42;22.00;45.20
4411;DHT22;2218;51.408;7.208;2023-05-14T15:40:12;21.90;45.30
4411;DHT22;2218;51.408;7.208;2023-05-14T15:42:41;22.00;45.40
4411;DHT22;2218;51.408;7.208;2023-05-14T15:45:09;21.90;45.50
4411;DHT22;2218;51.408;7.208;2023-05-14T15:47:37;22.00;45.50
4411;DHT22;2218;51.408;7.208;2023-05-14T15:50:06;22.00;45.60
4411;DHT22;2218;51.408;7.208;2023-05-14T15:52:34;21.90;45.30
4411;DHT22;2218;51.408;7.208;2023-05-14T15:55:01;22.00;45.60
4411;DHT22;2218;51.408;7.208;2023-05-14T15:57:30;21.90;45.50
4411;DHT22;2218;51.408;7.208;2023-05-14T15:59:57;21.90;45.40
4411;DHT22;2218;51.408;7.208;2023-05-14T16:02:24;21.90;45.50
4411;DHT22;2218;51.408;7.208;2023-05-14T16:04:54;22.00;45.60
4411;DHT22;2218;51.408;7.208;2023-05-14T16:07:21;21.90;45.50
4411;DHT22;2218;51.408;7.208;2023-05-14T16:09:48;21.90;45.60